createdAt,value
2022-11-05T00:01:37.846Z,92724.31
2022-11-05T00:07:00.323Z,92731.91
2022-11-05T00:12:30.826Z,92763.22
2022-11-05T00:17:34.831Z,92762.66
2022-11-05T00:22:59.116Z,92788.53
2022-11-05T00:28:04.504Z,92769.81
2022-11-05T00:33:08.541Z,92769.94
2022-11-05T00:38:12.015Z,92738.41
2022-11-05T00:43:33.804Z,92695.69
2022-11-05T00:48:55.488Z,92681.81
2022-11-05T00:53:58.789Z,92695.19
2022-11-05T00:59:02.376Z,92697.16
2022-11-05T01:04:05.861Z,92692.34
2022-11-05T01:09:08.910Z,92674.97
2022-11-05T01:14:14.773Z,92672.31
2022-11-05T01:19:18.076Z,92677.94
2022-11-05T01:24:21.854Z,92668.63
2022-11-05T01:29:24.874Z,92660.38
2022-11-05T01:34:28.135Z,92641.88
2022-11-05T01:39:31.629Z,92633.72
2022-11-05T01:44:54.902Z,92685.28
2022-11-05T01:50:03.559Z,92672.34
2022-11-05T01:55:10.362Z,92697.19
2022-11-05T02:00:16.365Z,92671.88
2022-11-05T02:05:20.201Z,92687.44
2022-11-05T02:10:24.604Z,92667.19
2022-11-05T02:15:44.946Z,92665.03
2022-11-05T02:20:54.117Z,92650.72
2022-11-05T02:26:35.645Z,92634.56
2022-11-05T02:32:10.369Z,92615.09
2022-11-05T02:37:26.599Z,92608.34
2022-11-05T02:43:07.107Z,92625.88
2022-11-05T02:48:38.092Z,92607.59
2022-11-05T02:54:20.721Z,92567.72
2022-11-05T02:59:24.010Z,92512.16
2022-11-05T03:04:29.470Z,92520.47
2022-11-05T03:10:18.994Z,92520.47
2022-11-05T03:15:44.655Z,92471.41
2022-11-05T03:20:55.519Z,92522.41
2022-11-05T03:26:10.659Z,92554.91
2022-11-05T03:31:16.919Z,92550.78
2022-11-05T03:36:27.847Z,92549.19
2022-11-05T03:41:34.763Z,92562.88
2022-11-05T03:46:45.495Z,92559.31
2022-11-05T03:51:58.595Z,92545.47
2022-11-05T03:57:20.199Z,92529.84
2022-11-05T04:02:26.049Z,92523.63
2022-11-05T04:07:48.419Z,92514.38
2022-11-05T04:13:10.879Z,92505.25
2022-11-05T04:18:14.429Z,92483.72
2022-11-05T04:23:36.991Z,92479.22
2022-11-05T04:29:01.444Z,92462.22
2022-11-05T04:34:09.059Z,92504.19
2022-11-05T04:39:13.251Z,92514.84
2022-11-05T04:44:17.563Z,92511.84
2022-11-05T04:49:21.292Z,92564.66
2022-11-05T04:54:24.806Z,92577.31
2022-11-05T04:59:27.801Z,92590.53
2022-11-05T05:04:31.783Z,92596.09
2022-11-05T05:09:35.430Z,92587.19
2022-11-05T05:14:39.019Z,92584.00
2022-11-05T05:20:01.637Z,92589.22
2022-11-05T05:25:05.528Z,92589.38
2022-11-05T05:30:09.643Z,92559.25
2022-11-05T05:35:13.819Z,92556.94
2022-11-05T05:40:18.048Z,92568.47
2022-11-05T05:45:22.333Z,92581.31
2022-11-05T05:50:25.584Z,92560.78
2022-11-05T05:55:29.899Z,92555.63
2022-11-05T06:00:33.557Z,92549.84
2022-11-05T06:05:36.938Z,92547.72
2022-11-05T06:10:40.514Z,92550.72
2022-11-05T06:15:43.566Z,92533.59
2022-11-05T06:20:46.546Z,92532.22
2022-11-05T06:25:50.081Z,92526.16
2022-11-05T06:30:53.211Z,92518.47
2022-11-05T06:35:59.479Z,92544.84
2022-11-05T06:41:08.988Z,92548.59
2022-11-05T06:46:14.041Z,92559.06
2022-11-05T06:51:17.797Z,92549.72
2022-11-05T06:56:20.770Z,92558.00
2022-11-05T07:01:24.357Z,92531.03
2022-11-05T07:06:30.933Z,92526.75
2022-11-05T07:11:38.192Z,92547.00
2022-11-05T07:16:42.412Z,92533.88
2022-11-05T07:21:46.203Z,92549.34
2022-11-05T07:26:49.937Z,92566.22
2022-11-05T07:31:52.979Z,92573.03
2022-11-05T07:36:57.205Z,92575.31
2022-11-05T07:42:00.465Z,92568.41
2022-11-05T07:47:09.455Z,92573.31
2022-11-05T07:52:12.561Z,92550.09
2022-11-05T07:57:16.697Z,92568.13
2022-11-05T08:02:20.412Z,92563.81
2022-11-05T08:07:24.258Z,92544.00
2022-11-05T08:12:27.341Z,92523.84
2022-11-05T08:17:30.631Z,92531.47
2022-11-05T08:22:33.737Z,92525.06
2022-11-05T08:27:36.853Z,92553.38
2022-11-05T08:32:40.915Z,92561.81
2022-11-05T08:37:44.376Z,92562.97
2022-11-05T08:42:47.562Z,92551.81
2022-11-05T08:47:50.991Z,92547.78
2022-11-05T08:52:54.060Z,92549.34
2022-11-05T08:58:02.531Z,92544.69
2022-11-05T09:03:08.878Z,92547.22
2022-11-05T09:08:14.980Z,92541.88
2022-11-05T09:13:20.105Z,92527.56
2022-11-05T09:18:24.653Z,92527.53
2022-11-05T09:23:27.758Z,92524.88
2022-11-05T09:28:32.597Z,92519.41
2022-11-05T09:33:39.136Z,92514.28
2022-11-05T09:38:42.176Z,92510.41
2022-11-05T09:43:50.153Z,92502.09
2022-11-05T09:49:04.368Z,92503.97
2022-11-05T09:54:07.760Z,92500.34
2022-11-05T09:59:27.383Z,92494.06
2022-11-05T10:04:34.006Z,92511.19
2022-11-05T10:09:45.617Z,92474.63
2022-11-05T10:14:55.009Z,92466.66
2022-11-05T10:20:08.373Z,92470.34
2022-11-05T10:25:20.044Z,92461.50
2022-11-05T10:30:24.149Z,92452.91
2022-11-05T10:35:31.152Z,92447.00
2022-11-05T10:40:44.221Z,92427.75
2022-11-05T10:46:04.147Z,92423.94
2022-11-05T10:51:08.621Z,92423.94
2022-11-05T10:56:35.975Z,92432.09
2022-11-05T11:01:39.388Z,92435.53
2022-11-05T11:06:53.669Z,92448.25
2022-11-05T11:12:08.857Z,92434.16
2022-11-05T11:17:30.173Z,92442.50
2022-11-05T11:22:35.027Z,92421.72
2022-11-05T11:27:39.467Z,92439.91
2022-11-05T11:32:44.136Z,92458.75
2022-11-05T11:37:49.968Z,92463.50
2022-11-05T11:43:02.309Z,92448.72
2022-11-05T11:48:08.107Z,92439.47
2022-11-05T11:53:20.660Z,92448.47
2022-11-05T11:58:35.184Z,92483.34
2022-11-05T12:03:55.203Z,92452.38
2022-11-05T12:09:19.683Z,92470.53
2022-11-05T12:14:56.402Z,92450.97
2022-11-05T12:20:25.625Z,92414.56
2022-11-05T12:26:06.923Z,92403.53
2022-11-05T12:31:33.448Z,92401.19
2022-11-05T12:37:01.974Z,92380.28
2022-11-05T12:42:30.926Z,92363.59
2022-11-05T12:48:12.784Z,92372.94
2022-11-05T12:53:30.089Z,92382.44
2022-11-05T12:58:47.679Z,92389.25
2022-11-05T13:03:58.641Z,92370.97
2022-11-05T13:09:14.247Z,92416.63
2022-11-05T13:14:27.281Z,92428.00
2022-11-05T13:19:37.697Z,92428.25
2022-11-05T13:24:56.452Z,92425.75
2022-11-05T13:30:07.503Z,92421.22
2022-11-05T13:35:23.864Z,92422.94
2022-11-05T13:40:47.472Z,92419.25
2022-11-05T13:46:15.046Z,92404.47
2022-11-05T13:51:58.315Z,92387.13
2022-11-05T13:57:14.740Z,92385.81
2022-11-05T14:02:22.841Z,92376.53
2022-11-05T14:07:33.921Z,92368.44
2022-11-05T14:12:40.307Z,92357.31
2022-11-05T14:18:24.900Z,92363.25
2022-11-05T14:23:40.607Z,92355.94
2022-11-05T14:28:47.968Z,92350.25
2022-11-05T14:34:05.219Z,92354.59
2022-11-05T14:39:27.914Z,92357.34
2022-11-05T14:44:35.253Z,92370.72
2022-11-05T14:50:09.102Z,92381.88
2022-11-05T14:55:39.519Z,92379.75
2022-11-05T15:00:46.358Z,92390.56
2022-11-05T15:05:52.122Z,92379.09
2022-11-05T15:11:12.108Z,92370.22
2022-11-05T15:16:32.088Z,92387.16
2022-11-05T15:21:38.493Z,92384.38
2022-11-05T15:26:55.524Z,92404.25
2022-11-05T15:31:59.988Z,92398.41
2022-11-05T15:37:11.218Z,92366.66
2022-11-05T15:42:22.395Z,92380.59
2022-11-05T15:47:35.059Z,92395.88
2022-11-05T15:52:43.255Z,92400.41
2022-11-05T15:57:52.385Z,92381.66
2022-11-05T16:03:08.988Z,92378.38
2022-11-05T16:08:20.309Z,92381.56
2022-11-05T16:13:39.533Z,92384.81
2022-11-05T16:18:44.162Z,92379.44
2022-11-05T16:23:50.076Z,92399.84
2022-11-05T16:28:54.409Z,92401.16
2022-11-05T16:33:59.223Z,92402.84
2022-11-05T16:39:02.457Z,92390.53
2022-11-05T16:44:05.657Z,92406.69
2022-11-05T16:49:12.603Z,92367.41
2022-11-05T16:54:16.742Z,92423.66
2022-11-05T16:59:19.833Z,92433.16
2022-11-05T17:04:24.061Z,92423.91
2022-11-05T17:09:27.856Z,92440.91
2022-11-05T17:14:31.166Z,92431.19
2022-11-05T17:19:34.393Z,92457.72
2022-11-05T17:24:39.360Z,92454.34
2022-11-05T17:29:42.598Z,92453.69
2022-11-05T17:34:46.658Z,92462.34
2022-11-05T17:39:50.647Z,92471.34
2022-11-05T17:44:54.579Z,92475.63
2022-11-05T17:49:59.423Z,92488.44
2022-11-05T17:55:04.751Z,92465.50
2022-11-05T18:00:09.717Z,92485.34
2022-11-05T18:05:14.220Z,92495.09
2022-11-05T18:10:18.677Z,92488.81
2022-11-05T18:15:21.989Z,92496.56
2022-11-05T18:20:25.166Z,92500.47
2022-11-05T18:25:28.443Z,92500.47
2022-11-05T18:30:31.407Z,92512.53
2022-11-05T18:35:56.272Z,92511.00
2022-11-05T18:41:08.173Z,92522.66
2022-11-05T18:46:35.997Z,92519.94
2022-11-05T18:51:38.741Z,92519.56
2022-11-05T18:56:45.812Z,92533.06
2022-11-05T19:01:50.584Z,92544.75
2022-11-05T19:06:54.610Z,92553.25
2022-11-05T19:11:57.628Z,92544.63
2022-11-05T19:17:02.198Z,92540.72
2022-11-05T19:22:06.184Z,92546.53
2022-11-05T19:27:10.428Z,92546.94
2022-11-05T19:32:13.454Z,92558.59
2022-11-05T19:37:16.397Z,92563.59
2022-11-05T19:42:20.447Z,92571.34
2022-11-05T19:47:23.531Z,92582.22
2022-11-05T19:52:26.970Z,92565.78
2022-11-05T19:57:29.968Z,92557.56
2022-11-05T20:02:33.819Z,92539.28
2022-11-05T20:07:37.003Z,92571.66
2022-11-05T20:12:40.033Z,92574.44
2022-11-05T20:17:43.518Z,92583.94
2022-11-05T20:22:46.673Z,92587.88
2022-11-05T20:27:50.512Z,92582.47
2022-11-05T20:32:55.359Z,92614.31
2022-11-05T20:37:59.748Z,92631.44
2022-11-05T20:43:02.887Z,92630.63
2022-11-05T20:48:07.154Z,92574.56
2022-11-05T20:53:12.527Z,92607.19
2022-11-05T20:58:17.536Z,92608.81
2022-11-05T21:03:29.497Z,92638.31
2022-11-05T21:08:33.565Z,92638.75
2022-11-05T21:13:37.550Z,92645.38
2022-11-05T21:18:41.575Z,92644.63
2022-11-05T21:23:45.188Z,92653.25
2022-11-05T21:28:49.553Z,92674.31
2022-11-05T21:33:55.188Z,92670.06
2022-11-05T21:38:59.626Z,92656.78
2022-11-05T21:44:04.636Z,92636.56
2022-11-05T21:49:08.372Z,92642.03
2022-11-05T21:54:30.584Z,92638.94
2022-11-05T21:59:50.260Z,92624.13
2022-11-05T22:04:55.885Z,92632.97
2022-11-05T22:09:59.953Z,92615.22
2022-11-05T22:15:03.599Z,92600.25
2022-11-05T22:20:08.579Z,92639.50
2022-11-05T22:25:13.759Z,92634.81
2022-11-05T22:30:16.888Z,92615.34
2022-11-05T22:35:20.564Z,92614.53
2022-11-05T22:40:24.260Z,92608.69
2022-11-05T22:45:28.540Z,92576.91
2022-11-05T22:50:33.459Z,92637.09
2022-11-05T22:55:40.323Z,92628.09
2022-11-05T23:00:44.490Z,92622.31
2022-11-05T23:05:47.944Z,92599.03
2022-11-05T23:11:09.688Z,92618.50
2022-11-05T23:16:31.825Z,92626.31
2022-11-05T23:21:53.218Z,92620.47
2022-11-05T23:26:58.068Z,92589.38
2022-11-05T23:32:20.910Z,92587.00
2022-11-05T23:37:46.285Z,92614.69
2022-11-05T23:43:07.977Z,92588.13
2022-11-05T23:48:25.242Z,92599.09
2022-11-05T23:53:30.070Z,92593.63
2022-11-05T23:58:33.669Z,92581.16
